Time;durP1;ratioP1;P1;durP2;ratioP2;P2;SDS_P1;SDS_P2;PMS_P1;PMS_P2;Temp;Humidity;BMP_temperature;BMP_pressure;BME280_temperature;BME280_humidity;BME280_pressure;Samples;Min_cycle;Max_cycle;Signal;HPM_P1;HPM_P2
2022/01/31 00:00:28;;;;;;;25.33;3.25;;;3.50;65.10;;;;;;4157592;28;20025;-33
2022/01/31 00:02:28;;;;;;;24.13;3.35;;;3.40;65.00;;;;;;4180367;28;20033;-33
2022/01/31 00:04:29;;;;;;;20.90;3.60;;;3.40;64.90;;;;;;4173890;28;20324;-33
2022/01/31 00:06:30;;;;;;;19.75;2.88;;;3.40;64.90;;;;;;4172184;28;20159;-33
2022/01/31 00:08:30;;;;;;;22.08;2.95;;;3.30;65.50;;;;;;4168766;28;20021;-33
2022/01/31 00:10:31;;;;;;;30.77;3.20;;;3.30;64.80;;;;;;4169679;28;20036;-34
2022/01/31 00:12:37;;;;;;;17.67;2.95;;;3.30;64.80;;;;;;4166492;28;20068;-33
2022/01/31 00:14:43;;;;;;;32.13;3.05;;;3.20;65.00;;;;;;4156630;28;20057;-33
2022/01/31 00:16:44;;;;;;;18.63;3.05;;;3.20;65.10;;;;;;4171471;28;20091;-33
2022/01/31 00:18:44;;;;;;;30.08;3.25;;;3.20;65.30;;;;;;4174371;28;20033;-33
2022/01/31 00:20:45;;;;;;;25.27;2.88;;;3.20;65.30;;;;;;4144533;28;20033;-33
2022/01/31 00:22:46;;;;;;;43.67;5.32;;;3.10;65.60;;;;;;4176769;28;20032;-32
2022/01/31 00:24:46;;;;;;;23.95;3.03;;;3.20;65.70;;;;;;4172561;28;20025;-33
2022/01/31 00:26:47;;;;;;;31.88;3.55;;;3.10;65.80;;;;;;4176233;28;20431;-32
2022/01/31 00:28:47;;;;;;;27.83;3.30;;;3.20;66.00;;;;;;4176117;28;20495;-33
2022/01/31 00:30:48;;;;;;;27.65;3.85;;;3.20;66.20;;;;;;4177709;28;20503;-33
2022/01/31 00:32:49;;;;;;;29.60;3.70;;;3.20;66.30;;;;;;4174794;28;20040;-33
2022/01/31 00:34:49;;;;;;;35.72;3.88;;;3.20;66.40;;;;;;4176220;28;20164;-33
2022/01/31 00:36:50;;;;;;;31.80;3.40;;;3.20;66.60;;;;;;4174563;28;20021;-34
2022/01/31 00:38:51;;;;;;;22.88;3.30;;;3.20;66.90;;;;;;4175106;28;20079;-34
2022/01/31 00:40:51;;;;;;;25.20;3.45;;;3.20;67.30;;;;;;4174688;28;20428;-34
2022/01/31 00:42:52;;;;;;;25.75;3.13;;;3.20;67.40;;;;;;4173267;28;20094;-34
2022/01/31 00:44:56;;;;;;;30.90;3.78;;;3.30;67.90;;;;;;4176330;28;20063;-34
2022/01/31 00:47:02;;;;;;;23.17;2.88;;;3.30;67.90;;;;;;4172625;28;20041;-34
2022/01/31 00:49:03;;;;;;;25.15;2.90;;;3.30;68.10;;;;;;4171176;28;20060;-34
2022/01/31 00:51:03;;;;;;;30.73;2.85;;;3.30;68.20;;;;;;4175528;28;20032;-34
2022/01/31 00:53:04;;;;;;;21.45;2.75;;;3.30;68.30;;;;;;4175153;28;20033;-34
2022/01/31 00:55:05;;;;;;;27.20;3.50;;;3.40;68.40;;;;;;4158339;28;20081;-34
2022/01/31 00:57:06;;;;;;;26.38;3.30;;;3.30;68.20;;;;;;4177713;28;20029;-35
2022/01/31 00:59:06;;;;;;;33.88;3.60;;;3.40;68.30;;;;;;4177909;28;20029;-34
2022/01/31 01:01:07;;;;;;;30.92;3.38;;;3.40;68.30;;;;;;4175047;28;20033;-35
2022/01/31 01:03:08;;;;;;;32.85;3.40;;;3.30;68.50;;;;;;4174883;28;20131;-34
2022/01/31 01:05:08;;;;;;;31.35;3.47;;;3.40;68.50;;;;;;4174261;28;20017;-34
2022/01/31 01:07:09;;;;;;;23.55;3.35;;;3.40;68.70;;;;;;4173543;28;20028;-34
2022/01/31 01:09:11;;;;;;;26.50;3.80;;;3.30;68.70;;;;;;4174058;28;20434;-35
2022/01/31 01:11:11;;;;;;;27.02;4.10;;;3.30;68.70;;;;;;4172440;28;20139;-34
2022/01/31 01:13:12;;;;;;;34.85;3.55;;;3.30;68.70;;;;;;4173678;28;20029;-35
2022/01/31 01:15:13;;;;;;;30.58;3.22;;;3.30;68.90;;;;;;4160227;28;20362;-35
2022/01/31 01:17:14;;;;;;;25.08;3.90;;;3.20;68.90;;;;;;4174590;28;20021;-34
2022/01/31 01:19:15;;;;;;;31.10;3.92;;;3.20;69.20;;;;;;4172896;28;20400;-34
2022/01/31 01:21:15;;;;;;;28.95;4.40;;;3.20;69.40;;;;;;4175065;28;20032;-34
2022/01/31 01:23:16;;;;;;;35.25;4.53;;;3.20;69.60;;;;;;4175000;28;20028;-34
2022/01/31 01:25:17;;;;;;;31.45;4.20;;;3.20;69.60;;;;;;4175232;28;20582;-34
2022/01/31 01:27:20;;;;;;;32.50;4.65;;;3.20;69.70;;;;;;4158294;28;20064;-34
2022/01/31 01:29:21;;;;;;;40.13;4.72;;;3.20;69.80;;;;;;4173376;28;20021;-34
2022/01/31 01:31:22;;;;;;;41.15;4.55;;;3.30;70.10;;;;;;4174079;28;20392;-34
2022/01/31 01:33:23;;;;;;;32.17;3.28;;;3.30;70.20;;;;;;4156771;28;20241;-34
2022/01/31 01:35:26;;;;;;;24.15;3.85;;;3.30;70.30;;;;;;4173137;28;20044;-34
2022/01/31 01:37:26;;;;;;;27.13;3.97;;;3.30;70.30;;;;;;4173607;28;20492;-34
2022/01/31 01:39:27;;;;;;;36.88;3.63;;;3.30;70.30;;;;;;4171516;28;20054;-35
2022/01/31 01:41:28;;;;;;;28.98;3.67;;;3.30;70.40;;;;;;4175194;28;20377;-34
2022/01/31 01:43:30;;;;;;;26.48;3.63;;;3.40;70.40;;;;;;4175987;28;20030;-34
2022/01/31 01:45:30;;;;;;;39.22;4.13;;;3.40;70.40;;;;;;4174803;28;20036;-34
2022/01/31 01:47:31;;;;;;;32.65;3.72;;;3.40;70.50;;;;;;4172217;28;20025;-34
2022/01/31 01:49:31;;;;;;;32.25;4.20;;;3.40;70.70;;;;;;4172050;28;20029;-32
2022/01/31 01:51:32;;;;;;;18.95;2.95;;;3.40;70.80;;;;;;4157285;28;20049;-32
2022/01/31 01:53:33;;;;;;;33.50;4.03;;;3.40;70.90;;;;;;4173893;28;20029;-33
2022/01/31 01:55:34;;;;;;;33.22;3.58;;;3.50;71.10;;;;;;4176307;28;20048;-33
2022/01/31 01:57:34;;;;;;;35.03;3.55;;;3.40;71.00;;;;;;4174187;28;20029;-33
2022/01/31 01:59:37;;;;;;;34.60;3.60;;;3.50;71.10;;;;;;4170950;28;20500;-33
2022/01/31 02:01:37;;;;;;;25.05;3.28;;;3.50;71.20;;;;;;4155231;28;20040;-33
2022/01/31 02:03:39;;;;;;;29.30;3.65;;;3.50;71.20;;;;;;4174612;28;20029;-34
2022/01/31 02:05:40;;;;;;;41.60;5.00;;;3.50;71.10;;;;;;4172213;28;20028;-33
2022/01/31 02:07:41;;;;;;;29.83;3.53;;;3.50;71.20;;;;;;4175094;28;20063;-32
2022/01/31 02:09:52;;;;;;;27.15;4.70;;;3.50;71.30;;;;;;4177881;28;20025;-33
2022/01/31 02:11:57;;;;;;;41.55;4.82;;;3.50;71.50;;;;;;4171997;28;20056;-33
2022/01/31 02:13:57;;;;;;;48.10;4.95;;;3.50;71.60;;;;;;4172545;28;20033;-32
2022/01/31 02:15:58;;;;;;;31.27;4.22;;;3.50;71.40;;;;;;4171780;28;20380;-33
2022/01/31 02:17:58;;;;;;;28.05;3.60;;;3.50;71.40;;;;;;4154351;28;20036;-33
2022/01/31 02:19:59;;;;;;;32.35;3.83;;;3.50;71.40;;;;;;4170157;28;20055;-33
2022/01/31 02:24:03;;;;;;;36.67;3.67;;;3.50;71.40;;;;;;4153999;28;20053;-33
2022/01/31 02:26:05;;;;;;;36.00;5.15;;;3.50;71.30;;;;;;4161687;28;20033;-33
2022/01/31 02:28:05;;;;;;;40.45;5.18;;;3.50;71.20;;;;;;4157445;28;20027;-33
2022/01/31 02:30:11;;;;;;;37.60;5.10;;;3.50;71.30;;;;;;4156597;28;20060;-33
2022/01/31 02:32:12;;;;;;;32.72;3.50;;;3.50;71.20;;;;;;4137414;28;20390;-33
2022/01/31 02:34:13;;;;;;;34.13;3.65;;;3.50;71.20;;;;;;4154673;28;20049;-33
2022/01/31 02:36:14;;;;;;;27.40;3.55;;;3.50;71.20;;;;;;4140528;28;20069;-33
2022/01/31 02:38:14;;;;;;;26.15;3.58;;;3.50;71.00;;;;;;4144460;28;20029;-33
2022/01/31 02:40:15;;;;;;;26.30;3.22;;;3.40;70.90;;;;;;4144230;28;20687;-33
2022/01/31 02:42:16;;;;;;;28.15;3.72;;;3.40;70.90;;;;;;4140984;28;20045;-33
2022/01/31 02:44:16;;;;;;;27.38;3.60;;;3.30;70.70;;;;;;4138052;28;20084;-33
2022/01/31 02:46:17;;;;;;;20.98;3.13;;;3.30;70.80;;;;;;4139212;28;20061;-33
2022/01/31 02:48:21;;;;;;;23.73;3.28;;;3.20;71.00;;;;;;4139628;28;20953;-33
2022/01/31 02:50:21;;;;;;;17.98;2.78;;;3.20;71.00;;;;;;4136885;28;20037;-33
2022/01/31 02:52:24;;;;;;;21.13;3.38;;;3.10;71.00;;;;;;4134073;28;20038;-33
2022/01/31 02:54:25;;;;;;;16.70;3.22;;;3.10;71.00;;;;;;4139457;28;20072;-34
2022/01/31 02:56:25;;;;;;;19.67;3.35;;;3.10;71.10;;;;;;4145087;28;20030;-33
2022/01/31 02:58:27;;;;;;;16.77;2.70;;;3.00;71.00;;;;;;4140459;28;20084;-33
2022/01/31 03:00:28;;;;;;;20.45;3.67;;;3.00;71.00;;;;;;4140048;28;20033;-33
2022/01/31 03:02:28;;;;;;;13.98;2.42;;;3.00;71.20;;;;;;4140996;28;20034;-33
2022/01/31 03:04:29;;;;;;;21.13;2.83;;;2.90;71.20;;;;;;4137603;28;20034;-33
2022/01/31 03:06:29;;;;;;;17.40;3.05;;;2.90;71.40;;;;;;4140582;28;20057;-33
2022/01/31 03:08:30;;;;;;;24.33;3.22;;;2.80;71.50;;;;;;4138346;28;20117;-33
2022/01/31 03:10:31;;;;;;;19.95;3.08;;;2.80;71.80;;;;;;4141786;28;20032;-33
2022/01/31 03:12:31;;;;;;;20.30;3.50;;;2.80;72.10;;;;;;4140179;28;20026;-33
2022/01/31 03:14:32;;;;;;;17.70;3.38;;;2.70;72.10;;;;;;4139035;28;20453;-33
2022/01/31 03:16:34;;;;;;;23.23;2.70;;;2.70;72.10;;;;;;4139500;28;21730;-33
2022/01/31 03:18:35;;;;;;;27.67;4.10;;;2.70;72.50;;;;;;4140075;28;20095;-33
2022/01/31 03:20:35;;;;;;;22.88;3.80;;;2.70;72.40;;;;;;4141245;28;20038;-33
2022/01/31 03:22:36;;;;;;;14.95;2.70;;;2.70;72.50;;;;;;4138766;28;20093;-34
2022/01/31 03:24:36;;;;;;;24.65;3.08;;;2.70;72.40;;;;;;4142791;28;20033;-33
2022/01/31 03:26:38;;;;;;;15.48;2.90;;;2.70;72.50;;;;;;4142979;28;20457;-33
2022/01/31 03:28:38;;;;;;;20.83;3.30;;;2.70;72.60;;;;;;4141207;28;20486;-33
2022/01/31 03:30:39;;;;;;;18.77;2.97;;;2.70;72.70;;;;;;4144386;28;20026;-35
2022/01/31 03:32:39;;;;;;;18.10;3.47;;;2.70;72.70;;;;;;4141435;28;20444;-33
2022/01/31 03:34:40;;;;;;;21.33;3.35;;;2.70;72.90;;;;;;4145875;28;20038;-33
2022/01/31 03:36:42;;;;;;;19.13;3.38;;;2.70;72.90;;;;;;4141314;28;20030;-34
2022/01/31 03:38:43;;;;;;;27.25;3.72;;;2.70;72.90;;;;;;4147110;28;20049;-34
2022/01/31 03:40:44;;;;;;;23.67;3.88;;;2.70;73.00;;;;;;4143168;28;20037;-33
2022/01/31 03:42:44;;;;;;;22.45;3.40;;;2.70;73.20;;;;;;4142926;28;20037;-34
2022/01/31 03:44:46;;;;;;;27.13;3.72;;;2.70;73.20;;;;;;4145892;28;20041;-33
2022/01/31 03:46:47;;;;;;;31.67;3.67;;;2.60;73.00;;;;;;4143048;28;20030;-33
2022/01/31 03:48:48;;;;;;;26.35;4.00;;;2.60;73.00;;;;;;4143304;28;20029;-33
2022/01/31 03:50:49;;;;;;;25.20;3.58;;;2.60;73.90;;;;;;4138097;28;20036;-33
2022/01/31 03:52:52;;;;;;;27.63;4.15;;;2.60;73.50;;;;;;4139902;28;20478;-33
2022/01/31 03:54:55;;;;;;;;;;;2.60;73.50;;;;;;4143933;28;20048;-33
2022/01/31 03:56:56;;;;;;;13.60;2.78;;;2.50;73.90;;;;;;4141290;28;19979;-33
2022/01/31 03:58:57;;;;;;;23.30;3.63;;;2.50;73.60;;;;;;4143258;28;20029;-32
2022/01/31 04:00:57;;;;;;;19.38;3.25;;;2.50;74.40;;;;;;4137085;28;20033;-32
2022/01/31 04:02:58;;;;;;;27.25;4.45;;;2.50;73.70;;;;;;4141887;28;20385;-34
2022/01/31 04:04:58;;;;;;;34.95;3.78;;;2.40;73.80;;;;;;4150625;28;20022;-34
2022/01/31 04:06:59;;;;;;;30.25;4.40;;;2.40;74.10;;;;;;4143855;28;20410;-33
2022/01/31 04:08:59;;;;;;;23.70;3.72;;;2.40;74.10;;;;;;4142191;28;20033;-33
2022/01/31 04:11:00;;;;;;;25.17;3.55;;;2.40;74.20;;;;;;4141458;28;20477;-33
2022/01/31 04:13:01;;;;;;;19.90;3.30;;;2.40;74.20;;;;;;4139083;28;20115;-32
2022/01/31 04:15:01;;;;;;;32.08;4.28;;;2.40;74.50;;;;;;4163741;28;20854;-33
2022/01/31 04:17:05;;;;;;;18.98;3.80;;;2.30;74.50;;;;;;4145236;28;20030;-33
2022/01/31 04:19:05;;;;;;;30.75;3.72;;;2.30;74.50;;;;;;4142097;28;20390;-33
2022/01/31 04:21:06;;;;;;;24.00;3.63;;;2.30;74.50;;;;;;4140208;28;20026;-33
2022/01/31 04:23:12;;;;;;;23.40;4.15;;;2.30;74.60;;;;;;4141966;28;20033;-33
2022/01/31 04:25:28;;;;;;;20.30;3.67;;;2.30;74.70;;;;;;4149120;28;20366;-33
2022/01/31 04:27:33;;;;;;;20.50;3.55;;;2.20;74.80;;;;;;4143730;28;20021;-33
2022/01/31 04:29:36;;;;;;;27.88;4.47;;;2.20;75.00;;;;;;4156285;28;20025;-34
2022/01/31 04:31:44;;;;;;;21.05;3.38;;;2.20;75.20;;;;;;4143547;28;20077;-33
2022/01/31 04:33:45;;;;;;;33.03;4.18;;;2.20;75.30;;;;;;4149147;28;20064;-34
2022/01/31 04:35:46;;;;;;;23.98;3.50;;;2.20;75.30;;;;;;4138995;28;20494;-33
2022/01/31 04:37:46;;;;;;;23.08;3.97;;;2.20;75.50;;;;;;4143668;28;20037;-33
2022/01/31 04:39:47;;;;;;;29.42;4.10;;;2.10;75.50;;;;;;4139860;28;20037;-33
2022/01/31 04:41:48;;;;;;;32.35;3.65;;;2.10;75.50;;;;;;4140550;28;20064;-33
2022/01/31 04:43:50;;;;;;;23.67;3.85;;;2.10;75.70;;;;;;4142690;28;20157;-33
2022/01/31 04:45:51;;;;;;;28.27;4.30;;;2.10;75.90;;;;;;4150253;28;20029;-34
2022/01/31 04:47:52;;;;;;;23.48;3.72;;;2.10;75.80;;;;;;4152418;28;20518;-33
2022/01/31 04:49:52;;;;;;;26.58;4.00;;;2.00;75.90;;;;;;4144006;28;20022;-33
2022/01/31 04:51:53;;;;;;;26.50;4.05;;;2.00;75.80;;;;;;4140445;28;20084;-33
2022/01/31 04:53:53;;;;;;;33.72;4.32;;;2.00;75.90;;;;;;4144094;28;20033;-33
2022/01/31 04:55:54;;;;;;;27.02;3.30;;;2.00;75.90;;;;;;4145096;28;20026;-33
2022/01/31 04:57:55;;;;;;;31.15;4.57;;;2.00;76.10;;;;;;4147916;28;20046;-33
2022/01/31 04:59:55;;;;;;;22.73;3.72;;;2.00;76.00;;;;;;4125346;28;20494;-33
2022/01/31 05:01:56;;;;;;;33.53;5.18;;;1.90;76.10;;;;;;4145181;28;20018;-33
2022/01/31 05:03:57;;;;;;;28.40;4.22;;;1.90;76.30;;;;;;4141279;28;20117;-33
2022/01/31 05:05:57;;;;;;;27.45;4.07;;;1.90;76.40;;;;;;4142267;28;20034;-33
2022/01/31 05:07:58;;;;;;;29.00;3.83;;;1.90;76.40;;;;;;4143315;28;20471;-33
2022/01/31 05:09:58;;;;;;;35.33;4.43;;;1.90;76.50;;;;;;4142191;28;20198;-33
2022/01/31 05:11:59;;;;;;;29.98;4.43;;;1.80;76.40;;;;;;4141999;28;20117;-33
2022/01/31 05:14:00;;;;;;;23.42;4.15;;;1.80;76.60;;;;;;4141676;28;20631;-33
2022/01/31 05:16:00;;;;;;;29.77;6.15;;;1.80;76.60;;;;;;4139301;28;20152;-33
2022/01/31 05:18:01;;;;;;;31.80;4.70;;;1.80;76.70;;;;;;4143128;28;20595;-33
2022/01/31 05:20:03;;;;;;;29.75;4.50;;;1.80;76.70;;;;;;4141355;28;20045;-33
2022/01/31 05:22:03;;;;;;;34.42;5.15;;;1.70;76.80;;;;;;4143958;28;20038;-33
2022/01/31 05:24:06;;;;;;;29.55;5.20;;;1.70;76.90;;;;;;4141491;28;20032;-32
2022/01/31 05:26:07;;;;;;;28.75;4.75;;;1.70;77.10;;;;;;4141781;28;20037;-34
2022/01/31 05:28:07;;;;;;;42.97;4.85;;;1.70;77.20;;;;;;4139915;28;20029;-33
2022/01/31 05:30:08;;;;;;;25.90;4.57;;;1.60;77.20;;;;;;4142721;28;20026;-33
2022/01/31 05:32:09;;;;;;;31.23;4.75;;;1.70;77.30;;;;;;4138485;28;20033;-33
2022/01/31 05:34:11;;;;;;;32.20;5.32;;;1.70;77.40;;;;;;4136884;28;20030;-33
2022/01/31 05:36:12;;;;;;;33.45;4.90;;;1.70;77.50;;;;;;4135613;28;20026;-33
2022/01/31 05:38:12;;;;;;;49.10;5.40;;;1.60;77.60;;;;;;4119552;28;20089;-33
2022/01/31 05:40:13;;;;;;;30.10;4.55;;;1.60;77.50;;;;;;4136135;28;20038;-33
2022/01/31 05:42:14;;;;;;;30.88;5.63;;;1.60;77.30;;;;;;4133877;28;20042;-33
2022/01/31 05:44:14;;;;;;;38.45;5.43;;;1.60;77.60;;;;;;4138434;28;20018;-33
2022/01/31 05:46:15;;;;;;;32.13;4.70;;;1.60;77.70;;;;;;4142905;28;20412;-33
2022/01/31 05:48:18;;;;;;;30.30;5.00;;;1.60;77.70;;;;;;4137624;28;20040;-33
2022/01/31 05:50:19;;;;;;;44.70;4.95;;;1.50;78.00;;;;;;4134483;28;20035;-33
2022/01/31 05:52:20;;;;;;;28.52;4.78;;;1.50;78.20;;;;;;4132151;28;20080;-33
2022/01/31 05:54:21;;;;;;;30.63;4.75;;;1.50;78.30;;;;;;4135187;28;20042;-33
2022/01/31 05:56:21;;;;;;;34.67;4.97;;;1.50;78.40;;;;;;4135949;28;20029;-33
2022/01/31 05:58:22;;;;;;;36.90;5.25;;;1.50;78.60;;;;;;4131173;28;20117;-34
2022/01/31 06:00:22;;;;;;;37.65;4.75;;;1.50;78.70;;;;;;4133408;28;20513;-33
2022/01/31 06:02:23;;;;;;;33.92;5.35;;;1.50;78.70;;;;;;4141845;28;20135;-34
2022/01/31 06:04:24;;;;;;;110.25;37.55;;;1.50;78.60;;;;;;4142896;28;20474;-34
2022/01/31 06:06:25;;;;;;;52.25;8.45;;;1.50;78.80;;;;;;4140861;28;20044;-34
2022/01/31 06:08:25;;;;;;;36.75;5.93;;;1.50;79.10;;;;;;4144984;28;20057;-34
2022/01/31 06:10:26;;;;;;;31.17;5.03;;;1.50;79.20;;;;;;4143547;28;20481;-34
2022/01/31 06:12:27;;;;;;;32.35;5.55;;;1.50;79.20;;;;;;4142741;28;20029;-33
2022/01/31 06:14:28;;;;;;;34.65;5.28;;;1.50;79.50;;;;;;4145215;28;20022;-33
2022/01/31 06:16:28;;;;;;;33.00;5.57;;;1.50;79.30;;;;;;4137795;28;20113;-34
2022/01/31 06:18:29;;;;;;;32.85;4.88;;;1.50;79.40;;;;;;4141503;28;20046;-33
2022/01/31 06:20:30;;;;;;;43.78;6.88;;;1.60;79.50;;;;;;4138746;28;20087;-33
2022/01/31 06:22:30;;;;;;;40.05;5.47;;;1.50;79.50;;;;;;4145060;28;20085;-33
2022/01/31 06:24:31;;;;;;;34.90;6.13;;;1.50;79.60;;;;;;4143072;28;20033;-33
2022/01/31 06:26:31;;;;;;;34.35;5.20;;;1.50;79.60;;;;;;4124400;28;20030;-34
2022/01/31 06:28:32;;;;;;;31.83;5.15;;;1.50;79.60;;;;;;4141272;28;20071;-34
2022/01/31 06:30:33;;;;;;;37.55;5.45;;;1.50;79.70;;;;;;4138283;28;20489;-33
2022/01/31 06:32:34;;;;;;;30.65;5.32;;;1.50;79.90;;;;;;4148783;28;20040;-34
2022/01/31 06:34:34;;;;;;;34.38;5.35;;;1.50;80.00;;;;;;4159757;28;20108;-34
2022/01/31 06:36:35;;;;;;;38.53;5.68;;;1.50;80.00;;;;;;4146620;28;20087;-34
2022/01/31 06:38:38;;;;;;;45.45;6.60;;;1.50;80.20;;;;;;4146913;28;20033;-34
2022/01/31 06:40:39;;;;;;;32.45;6.18;;;1.50;80.30;;;;;;4136182;28;20041;-34
2022/01/31 06:42:40;;;;;;;30.75;5.03;;;1.40;80.30;;;;;;4143313;28;20041;-33
2022/01/31 06:44:41;;;;;;;44.17;6.25;;;1.40;80.20;;;;;;4144903;28;20018;-33
2022/01/31 06:46:41;;;;;;;32.55;5.60;;;1.50;80.20;;;;;;4143066;28;20037;-33
2022/01/31 06:48:42;;;;;;;36.35;6.30;;;1.40;80.00;;;;;;4139945;28;20578;-33
2022/01/31 06:50:42;;;;;;;35.10;5.65;;;1.40;80.20;;;;;;4142897;28;20136;-33
2022/01/31 06:52:43;;;;;;;36.92;6.25;;;1.40;80.10;;;;;;4142664;28;20041;-33
2022/01/31 06:54:44;;;;;;;37.33;5.70;;;1.40;80.20;;;;;;4137797;28;20037;-34
2022/01/31 06:56:45;;;;;;;32.30;5.55;;;1.40;80.20;;;;;;4139193;28;20034;-34
2022/01/31 06:58:46;;;;;;;31.23;6.47;;;1.40;80.20;;;;;;4143494;28;20026;-33
2022/01/31 07:00:46;;;;;;;43.58;6.80;;;1.40;80.30;;;;;;4145746;28;20531;-33
2022/01/31 07:02:48;;;;;;;36.05;6.65;;;1.40;80.50;;;;;;4145444;28;20057;-33
2022/01/31 07:04:48;;;;;;;34.92;6.30;;;1.40;80.70;;;;;;4141924;28;20018;-33
2022/01/31 07:06:49;;;;;;;26.95;6.18;;;1.40;80.80;;;;;;4130201;28;20031;-33
2022/01/31 07:08:50;;;;;;;37.78;7.20;;;1.40;80.90;;;;;;4139522;28;20030;-34
2022/01/31 07:10:52;;;;;;;33.53;7.13;;;1.40;80.90;;;;;;4143647;28;20022;-33
2022/01/31 07:12:54;;;;;;;39.65;7.03;;;1.30;81.00;;;;;;4143998;28;20245;-34
2022/01/31 07:14:54;;;;;;;30.40;5.47;;;1.40;81.00;;;;;;4138323;28;20508;-33
2022/01/31 07:16:55;;;;;;;35.88;6.30;;;1.40;81.00;;;;;;4143952;28;20069;-34
2022/01/31 07:19:07;;;;;;;44.90;7.25;;;1.40;81.10;;;;;;4156475;28;20531;-33
2022/01/31 07:21:12;;;;;;;36.00;6.63;;;1.40;81.00;;;;;;4142847;28;20084;-33
2022/01/31 07:23:23;;;;;;;31.63;7.65;;;1.40;81.20;;;;;;4140394;28;20037;-33
2022/01/31 07:25:34;;;;;;;32.83;7.53;;;1.40;81.20;;;;;;4140762;28;20497;-33
2022/01/31 07:27:35;;;;;;;25.77;6.30;;;1.40;81.10;;;;;;4144611;28;20029;-33
2022/01/31 07:29:36;;;;;;;29.33;6.82;;;1.40;81.00;;;;;;4142091;28;20030;-34
2022/01/31 07:31:38;;;;;;;34.38;7.72;;;1.40;81.10;;;;;;4142439;28;20121;-33
2022/01/31 07:33:41;;;;;;;25.83;7.25;;;1.40;81.10;;;;;;4162639;28;20061;-34
2022/01/31 07:35:41;;;;;;;34.10;7.72;;;1.50;81.00;;;;;;4141800;28;20254;-33
2022/01/31 07:37:42;;;;;;;36.00;7.07;;;1.50;81.10;;;;;;4144335;28;20030;-33
2022/01/31 07:39:43;;;;;;;31.67;7.63;;;1.50;81.10;;;;;;4143557;28;20696;-34
2022/01/31 07:41:43;;;;;;;44.97;8.27;;;1.50;81.00;;;;;;4143830;28;20049;-34
2022/01/31 07:43:44;;;;;;;29.45;6.97;;;1.50;81.00;;;;;;4138746;28;20026;-33
2022/01/31 07:45:44;;;;;;;29.50;7.20;;;1.50;81.00;;;;;;4141454;28;20520;-36
2022/01/31 07:47:45;;;;;;;26.77;6.97;;;1.60;80.90;;;;;;4141275;28;20116;-34
2022/01/31 07:49:46;;;;;;;37.83;8.52;;;1.60;80.90;;;;;;4142407;28;20476;-40
2022/01/31 07:51:46;;;;;;;30.63;7.70;;;1.60;80.90;;;;;;4140812;28;20045;-33
2022/01/31 07:53:47;;;;;;;26.05;6.45;;;1.60;80.90;;;;;;4137736;28;20029;-34
2022/01/31 07:55:48;;;;;;;32.55;7.68;;;1.60;80.90;;;;;;4152951;28;20044;-34
2022/01/31 07:57:48;;;;;;;32.08;7.82;;;1.60;80.80;;;;;;4155713;28;20138;-34
2022/01/31 07:59:49;;;;;;;37.13;7.97;;;1.60;80.80;;;;;;4142470;28;20176;-33
2022/01/31 08:01:50;;;;;;;30.95;7.80;;;1.60;80.90;;;;;;4141714;28;20045;-33
2022/01/31 08:03:50;;;;;;;31.30;8.45;;;1.60;80.90;;;;;;4144185;28;20053;-34
2022/01/31 08:05:51;;;;;;;32.13;7.07;;;1.60;81.00;;;;;;4140994;28;20022;-33
2022/01/31 08:07:51;;;;;;;26.95;6.85;;;1.60;81.00;;;;;;4142529;28;20090;-33
2022/01/31 08:09:52;;;;;;;35.28;7.10;;;1.60;81.00;;;;;;4143887;28;20034;-33
2022/01/31 08:11:53;;;;;;;31.52;8.07;;;1.60;81.00;;;;;;4140337;28;20105;-34
2022/01/31 08:13:59;;;;;;;30.90;7.72;;;1.60;81.20;;;;;;4146964;28;20478;-34
2022/01/31 08:18:09;;;;;;;35.42;9.85;;;1.60;81.20;;;;;;4145364;28;20097;-33
2022/01/31 08:20:11;;;;;;;31.50;7.68;;;1.60;81.10;;;;;;4149382;28;20375;-34
2022/01/31 08:22:12;;;;;;;28.77;7.28;;;1.60;81.10;;;;;;4146477;28;20033;-33
2022/01/31 08:24:12;;;;;;;30.38;7.68;;;1.60;81.00;;;;;;4144132;28;20034;-33
2022/01/31 08:26:16;;;;;;;28.95;7.65;;;1.60;81.00;;;;;;4143951;28;20042;-34
2022/01/31 08:28:17;;;;;;;29.13;7.35;;;1.60;80.90;;;;;;4141610;28;20450;-33
2022/01/31 08:30:23;;;;;;;25.00;7.10;;;1.60;80.90;;;;;;4123425;28;20018;-34
2022/01/31 08:32:33;;;;;;;35.67;7.47;;;1.60;80.70;;;;;;4141599;28;20037;-34
2022/01/31 08:36:53;;;;;;;30.48;7.55;;;1.70;80.80;;;;;;4128920;28;20073;-34
2022/01/31 08:38:54;;;;;;;35.17;8.95;;;1.70;80.80;;;;;;4125462;28;20415;-34
2022/01/31 08:40:54;;;;;;;34.03;7.38;;;1.70;80.80;;;;;;4142815;28;20057;-33
2022/01/31 08:42:55;;;;;;;28.38;7.47;;;1.70;80.90;;;;;;4128380;28;20026;-34
2022/01/31 08:44:55;;;;;;;28.15;7.70;;;1.70;81.00;;;;;;4127714;28;20060;-35
2022/01/31 08:46:56;;;;;;;28.45;7.35;;;1.80;81.00;;;;;;4139837;28;20028;-34
2022/01/31 08:48:59;;;;;;;38.90;8.68;;;1.80;81.20;;;;;;4127257;28;20030;-34
2022/01/31 08:50:59;;;;;;;27.90;8.40;;;1.80;81.40;;;;;;4139441;28;20028;-34
2022/01/31 08:53:00;;;;;;;30.70;8.00;;;1.80;81.30;;;;;;4142599;28;20112;-34
2022/01/31 08:55:00;;;;;;;36.13;9.35;;;1.90;81.20;;;;;;4125016;28;20050;-34
2022/01/31 08:57:01;;;;;;;27.30;7.85;;;1.90;81.20;;;;;;4127213;28;20387;-34
2022/01/31 08:59:04;;;;;;;30.55;7.60;;;1.90;81.20;;;;;;4127543;28;20034;-33
2022/01/31 09:01:06;;;;;;;36.58;8.02;;;1.90;81.20;;;;;;4140764;28;20037;-33
2022/01/31 09:05:13;;;;;;;31.38;9.52;;;2.00;81.20;;;;;;4126197;28;20116;-34
2022/01/31 09:07:19;;;;;;;26.92;8.60;;;2.00;81.40;;;;;;4129767;28;20030;-33
2022/01/31 09:09:20;;;;;;;29.42;8.23;;;2.00;81.40;;;;;;4128360;28;20694;-34
2022/01/31 09:11:21;;;;;;;25.77;8.43;;;2.00;81.10;;;;;;4140228;28;20026;-33
2022/01/31 09:13:21;;;;;;;25.13;7.90;;;2.00;81.10;;;;;;4124341;28;21546;-33
2022/01/31 09:15:22;;;;;;;25.73;8.77;;;2.00;81.10;;;;;;4125547;28;20437;-34
2022/01/31 09:17:22;;;;;;;29.13;8.27;;;2.00;81.00;;;;;;4125438;28;20034;-34
2022/01/31 09:19:23;;;;;;;25.60;8.75;;;2.00;80.90;;;;;;4125291;28;20049;-34
2022/01/31 09:21:24;;;;;;;25.42;7.32;;;2.00;81.20;;;;;;4125643;28;20106;-33
2022/01/31 09:23:25;;;;;;;28.40;7.97;;;2.00;81.00;;;;;;4125310;28;20030;-33
2022/01/31 09:25:28;;;;;;;26.27;8.13;;;2.10;81.00;;;;;;4141971;28;20026;-34
2022/01/31 09:27:28;;;;;;;19.98;7.82;;;2.10;81.00;;;;;;4125210;28;20084;-34
2022/01/31 09:29:29;;;;;;;27.10;7.90;;;2.10;81.10;;;;;;4128146;28;20578;-34
2022/01/31 09:31:29;;;;;;;26.55;8.40;;;2.10;81.00;;;;;;4126502;28;20034;-34
2022/01/31 09:33:30;;;;;;;27.73;7.82;;;2.20;81.20;;;;;;4127795;28;20465;-34
2022/01/31 09:35:31;;;;;;;28.90;8.13;;;2.20;81.00;;;;;;4122577;28;20034;-34
2022/01/31 09:37:31;;;;;;;22.05;8.13;;;2.20;80.80;;;;;;4124133;28;20462;-34
2022/01/31 09:39:34;;;;;;;26.17;9.50;;;2.20;80.60;;;;;;4123976;28;20087;-34
2022/01/31 09:41:37;;;;;;;30.38;10.60;;;2.20;80.30;;;;;;4125657;28;20038;-34
2022/01/31 09:48:40;;;;;;;32.25;10.55;;;2.20;80.00;;;;;;4139833;28;20069;-34
2022/01/31 09:50:41;;;;;;;44.83;16.58;;;2.20;80.20;;;;;;4127502;28;20049;-33
2022/01/31 09:52:42;;;;;;;47.47;16.63;;;2.20;80.30;;;;;;4125627;28;20049;-33
2022/01/31 09:54:43;;;;;;;38.78;12.00;;;2.20;80.50;;;;;;4125920;28;20042;-34
2022/01/31 09:56:44;;;;;;;38.97;10.82;;;2.20;80.40;;;;;;4125328;28;20037;-34
2022/01/31 09:58:45;;;;;;;33.30;12.00;;;2.30;80.60;;;;;;4124374;28;20025;-33
2022/01/31 10:00:46;;;;;;;46.33;17.33;;;2.30;81.60;;;;;;4124882;28;20692;-34
2022/01/31 10:03:08;;;;;;;36.05;12.00;;;2.30;81.00;;;;;;4127756;28;20379;-33
2022/01/31 10:05:09;;;;;;;28.48;12.02;;;2.30;80.90;;;;;;4126138;28;20034;-33
2022/01/31 10:07:10;;;;;;;34.42;12.07;;;2.40;80.80;;;;;;4122863;28;20035;-33
2022/01/31 10:09:20;;;;;;;32.15;10.88;;;2.40;80.80;;;;;;4123022;28;20015;-34
2022/01/31 10:11:38;;;;;;;37.72;11.57;;;2.40;80.80;;;;;;4126125;28;20026;-34
2022/01/31 10:18:21;;;;;;;30.83;12.13;;;2.60;81.10;;;;;;4140124;28;20505;-33
2022/01/31 10:20:30;;;;;;;37.53;12.43;;;2.60;80.90;;;;;;4124413;28;20023;-33
2022/01/31 10:22:32;;;;;;;44.15;11.73;;;2.70;80.60;;;;;;4136068;28;20030;-34
2022/01/31 10:24:33;;;;;;;26.80;10.63;;;2.70;79.80;;;;;;4124533;28;20574;-33
2022/01/31 10:26:34;;;;;;;28.83;10.48;;;2.70;79.40;;;;;;4125950;28;20066;-33
2022/01/31 10:28:38;;;;;;;33.45;10.50;;;2.70;79.20;;;;;;4126325;28;20030;-33
2022/01/31 10:30:39;;;;;;;34.00;10.82;;;2.70;79.00;;;;;;4126393;28;20406;-33
2022/01/31 10:32:42;;;;;;;30.20;10.90;;;2.70;78.80;;;;;;4124373;28;20026;-34
2022/01/31 10:34:47;;;;;;;37.05;10.10;;;2.70;78.50;;;;;;4123668;28;20109;-33
2022/01/31 10:36:48;;;;;;;38.03;11.35;;;2.70;78.30;;;;;;4124191;28;20029;-34
2022/01/31 10:39:14;;;;;;;33.15;9.52;;;2.70;78.20;;;;;;4123816;28;20026;-32
2022/01/31 10:44:22;;;;;;;27.63;8.87;;;2.70;78.20;;;;;;4123819;28;20022;-34
2022/01/31 10:53:16;;;;;;;24.50;8.45;;;2.80;78.70;;;;;;4127546;28;20137;-34
2022/01/31 10:55:17;;;;;;;26.88;9.35;;;2.80;78.50;;;;;;4124091;28;20030;-33
2022/01/31 10:57:22;;;;;;;40.75;11.05;;;2.80;78.40;;;;;;4124701;28;20029;-33
2022/01/31 10:59:31;;;;;;;35.38;9.55;;;2.90;78.50;;;;;;4127370;28;20108;-33